sensor_id;sensor_type;location;lat;lon;timestamp;P1;durP1;ratioP1;P2;durP2;ratioP2
43933;SDS011;59081;42.706;23.306;2022-07-25T00:01:50;10.40;;;7.57;;
43933;SDS011;59081;42.706;23.306;2022-07-25T00:04:16;13.25;;;8.45;;
43933;SDS011;59081;42.706;23.306;2022-07-25T00:06:42;15.70;;;9.00;;
43933;SDS011;59081;42.706;23.306;2022-07-25T00:09:08;11.32;;;8.27;;
43933;SDS011;59081;42.706;23.306;2022-07-25T00:11:37;9.93;;;8.50;;
43933;SDS011;59081;42.706;23.306;2022-07-25T00:14:03;11.25;;;8.88;;
43933;SDS011;59081;42.706;23.306;2022-07-25T00:16:29;9.80;;;8.50;;
43933;SDS011;59081;42.706;23.306;2022-07-25T00:18:54;11.55;;;8.25;;
43933;SDS011;59081;42.706;23.306;2022-07-25T00:21:20;14.05;;;7.90;;
43933;SDS011;59081;42.706;23.306;2022-07-25T00:23:46;11.73;;;8.48;;
43933;SDS011;59081;42.706;23.306;2022-07-25T00:26:11;10.13;;;8.30;;
43933;SDS011;59081;42.706;23.306;2022-07-25T00:28:38;11.23;;;8.10;;
43933;SDS011;59081;42.706;23.306;2022-07-25T00:31:06;9.85;;;8.38;;
43933;SDS011;59081;42.706;23.306;2022-07-25T00:33:31;11.25;;;8.60;;
43933;SDS011;59081;42.706;23.306;2022-07-25T00:35:57;13.13;;;9.00;;
43933;SDS011;59081;42.706;23.306;2022-07-25T00:38:23;11.82;;;8.70;;
43933;SDS011;59081;42.706;23.306;2022-07-25T00:40:48;10.40;;;9.32;;
43933;SDS011;59081;42.706;23.306;2022-07-25T00:43:14;10.43;;;8.75;;
43933;SDS011;59081;42.706;23.306;2022-07-25T00:45:40;11.63;;;9.07;;
43933;SDS011;59081;42.706;23.306;2022-07-25T00:48:05;10.05;;;8.65;;
43933;SDS011;59081;42.706;23.306;2022-07-25T00:50:32;10.60;;;8.98;;
43933;SDS011;59081;42.706;23.306;2022-07-25T00:52:58;11.32;;;9.05;;
43933;SDS011;59081;42.706;23.306;2022-07-25T00:55:24;12.32;;;9.35;;
43933;SDS011;59081;42.706;23.306;2022-07-25T00:57:50;11.13;;;8.88;;
43933;SDS011;59081;42.706;23.306;2022-07-25T01:00:16;9.60;;;8.63;;
43933;SDS011;59081;42.706;23.306;2022-07-25T01:02:42;12.02;;;8.50;;
43933;SDS011;59081;42.706;23.306;2022-07-25T01:05:09;12.55;;;9.15;;
43933;SDS011;59081;42.706;23.306;2022-07-25T01:07:36;15.07;;;9.60;;
43933;SDS011;59081;42.706;23.306;2022-07-25T01:10:02;14.00;;;9.23;;
43933;SDS011;59081;42.706;23.306;2022-07-25T01:12:29;12.18;;;9.18;;
43933;SDS011;59081;42.706;23.306;2022-07-25T01:14:55;16.92;;;9.93;;
43933;SDS011;59081;42.706;23.306;2022-07-25T01:17:21;12.35;;;9.40;;
43933;SDS011;59081;42.706;23.306;2022-07-25T01:19:47;14.70;;;9.68;;
43933;SDS011;59081;42.706;23.306;2022-07-25T01:22:17;11.00;;;9.40;;
43933;SDS011;59081;42.706;23.306;2022-07-25T01:24:42;10.18;;;8.85;;
43933;SDS011;59081;42.706;23.306;2022-07-25T01:27:08;13.18;;;9.55;;
43933;SDS011;59081;42.706;23.306;2022-07-25T01:29:34;12.60;;;9.43;;
43933;SDS011;59081;42.706;23.306;2022-07-25T01:31:59;11.27;;;9.00;;
43933;SDS011;59081;42.706;23.306;2022-07-25T01:34:25;10.38;;;9.30;;
43933;SDS011;59081;42.706;23.306;2022-07-25T01:36:50;12.07;;;9.70;;
43933;SDS011;59081;42.706;23.306;2022-07-25T01:39:16;16.00;;;10.27;;
43933;SDS011;59081;42.706;23.306;2022-07-25T01:41:41;13.27;;;10.15;;
43933;SDS011;59081;42.706;23.306;2022-07-25T01:44:07;12.13;;;10.02;;
43933;SDS011;59081;42.706;23.306;2022-07-25T01:46:32;13.25;;;10.45;;
43933;SDS011;59081;42.706;23.306;2022-07-25T01:49:01;12.73;;;9.88;;
43933;SDS011;59081;42.706;23.306;2022-07-25T01:51:27;11.50;;;9.70;;
43933;SDS011;59081;42.706;23.306;2022-07-25T01:53:52;13.93;;;9.90;;
43933;SDS011;59081;42.706;23.306;2022-07-25T01:56:18;12.85;;;10.07;;
43933;SDS011;59081;42.706;23.306;2022-07-25T01:58:43;12.30;;;10.25;;
43933;SDS011;59081;42.706;23.306;2022-07-25T02:01:09;11.57;;;9.20;;
43933;SDS011;59081;42.706;23.306;2022-07-25T02:03:34;14.00;;;10.15;;
43933;SDS011;59081;42.706;23.306;2022-07-25T02:06:01;13.25;;;10.25;;
43933;SDS011;59081;42.706;23.306;2022-07-25T02:08:28;15.00;;;10.43;;
43933;SDS011;59081;42.706;23.306;2022-07-25T02:10:55;13.70;;;10.52;;
43933;SDS011;59081;42.706;23.306;2022-07-25T02:13:23;12.85;;;9.98;;
43933;SDS011;59081;42.706;23.306;2022-07-25T02:15:49;16.15;;;10.73;;
43933;SDS011;59081;42.706;23.306;2022-07-25T02:18:15;13.13;;;9.90;;
43933;SDS011;59081;42.706;23.306;2022-07-25T02:20:40;13.90;;;10.52;;
43933;SDS011;59081;42.706;23.306;2022-07-25T02:23:06;14.43;;;11.23;;
43933;SDS011;59081;42.706;23.306;2022-07-25T02:25:32;16.05;;;10.73;;
43933;SDS011;59081;42.706;23.306;2022-07-25T02:27:58;12.20;;;10.98;;
43933;SDS011;59081;42.706;23.306;2022-07-25T02:30:24;16.08;;;10.95;;
43933;SDS011;59081;42.706;23.306;2022-07-25T02:32:50;15.10;;;11.13;;
43933;SDS011;59081;42.706;23.306;2022-07-25T02:35:16;12.77;;;9.70;;
43933;SDS011;59081;42.706;23.306;2022-07-25T02:37:42;14.02;;;10.32;;
43933;SDS011;59081;42.706;23.306;2022-07-25T02:40:08;12.98;;;10.07;;
43933;SDS011;59081;42.706;23.306;2022-07-25T02:42:34;15.32;;;10.45;;
43933;SDS011;59081;42.706;23.306;2022-07-25T02:44:59;12.18;;;9.90;;
43933;SDS011;59081;42.706;23.306;2022-07-25T02:47:26;11.25;;;9.70;;
43933;SDS011;59081;42.706;23.306;2022-07-25T02:49:51;11.65;;;8.63;;
43933;SDS011;59081;42.706;23.306;2022-07-25T02:52:17;12.73;;;9.48;;
43933;SDS011;59081;42.706;23.306;2022-07-25T02:54:43;17.80;;;10.30;;
43933;SDS011;59081;42.706;23.306;2022-07-25T02:57:08;13.88;;;9.07;;
43933;SDS011;59081;42.706;23.306;2022-07-25T02:59:34;12.77;;;9.98;;
43933;SDS011;59081;42.706;23.306;2022-07-25T03:02:00;9.80;;;8.65;;
43933;SDS011;59081;42.706;23.306;2022-07-25T03:04:25;10.63;;;9.45;;
43933;SDS011;59081;42.706;23.306;2022-07-25T03:06:51;12.43;;;9.63;;
43933;SDS011;59081;42.706;23.306;2022-07-25T03:09:16;10.65;;;9.55;;
43933;SDS011;59081;42.706;23.306;2022-07-25T03:11:43;16.25;;;10.70;;
43933;SDS011;59081;42.706;23.306;2022-07-25T03:14:08;11.55;;;9.90;;
43933;SDS011;59081;42.706;23.306;2022-07-25T03:16:34;13.57;;;10.57;;
43933;SDS011;59081;42.706;23.306;2022-07-25T03:19:00;11.85;;;9.73;;
43933;SDS011;59081;42.706;23.306;2022-07-25T03:21:26;12.77;;;9.52;;
43933;SDS011;59081;42.706;23.306;2022-07-25T03:23:54;12.32;;;9.82;;
43933;SDS011;59081;42.706;23.306;2022-07-25T03:26:20;13.93;;;10.23;;
43933;SDS011;59081;42.706;23.306;2022-07-25T03:28:45;15.10;;;9.13;;
43933;SDS011;59081;42.706;23.306;2022-07-25T03:31:11;14.75;;;9.35;;
43933;SDS011;59081;42.706;23.306;2022-07-25T03:33:36;10.75;;;9.60;;
43933;SDS011;59081;42.706;23.306;2022-07-25T03:36:02;11.65;;;9.75;;
43933;SDS011;59081;42.706;23.306;2022-07-25T03:38:28;11.23;;;9.20;;
43933;SDS011;59081;42.706;23.306;2022-07-25T03:40:53;13.65;;;9.60;;
43933;SDS011;59081;42.706;23.306;2022-07-25T03:43:19;10.45;;;9.25;;
43933;SDS011;59081;42.706;23.306;2022-07-25T03:45:45;16.95;;;9.13;;
43933;SDS011;59081;42.706;23.306;2022-07-25T03:48:12;12.90;;;7.78;;
43933;SDS011;59081;42.706;23.306;2022-07-25T03:50:38;14.20;;;9.43;;
43933;SDS011;59081;42.706;23.306;2022-07-25T03:53:04;15.52;;;9.02;;
43933;SDS011;59081;42.706;23.306;2022-07-25T03:55:29;12.05;;;9.18;;
43933;SDS011;59081;42.706;23.306;2022-07-25T03:57:55;11.35;;;9.02;;
43933;SDS011;59081;42.706;23.306;2022-07-25T04:00:21;17.23;;;9.00;;
43933;SDS011;59081;42.706;23.306;2022-07-25T04:02:50;13.90;;;10.77;;
43933;SDS011;59081;42.706;23.306;2022-07-25T04:05:15;12.93;;;9.45;;
43933;SDS011;59081;42.706;23.306;2022-07-25T04:07:44;16.23;;;9.10;;
43933;SDS011;59081;42.706;23.306;2022-07-25T04:10:09;15.95;;;9.23;;
43933;SDS011;59081;42.706;23.306;2022-07-25T04:12:38;11.27;;;9.85;;
43933;SDS011;59081;42.706;23.306;2022-07-25T04:15:07;10.45;;;9.32;;
43933;SDS011;59081;42.706;23.306;2022-07-25T04:17:33;13.00;;;9.40;;
43933;SDS011;59081;42.706;23.306;2022-07-25T04:19:58;11.70;;;8.75;;
43933;SDS011;59081;42.706;23.306;2022-07-25T04:22:24;13.15;;;7.53;;
43933;SDS011;59081;42.706;23.306;2022-07-25T04:24:49;13.02;;;9.32;;
43933;SDS011;59081;42.706;23.306;2022-07-25T04:27:15;9.57;;;7.28;;
43933;SDS011;59081;42.706;23.306;2022-07-25T04:29:40;12.13;;;9.63;;
43933;SDS011;59081;42.706;23.306;2022-07-25T04:32:06;9.80;;;8.27;;
43933;SDS011;59081;42.706;23.306;2022-07-25T04:34:32;13.73;;;8.40;;
43933;SDS011;59081;42.706;23.306;2022-07-25T04:36:57;10.45;;;7.57;;
43933;SDS011;59081;42.706;23.306;2022-07-25T04:39:23;11.50;;;8.63;;
43933;SDS011;59081;42.706;23.306;2022-07-25T04:41:48;10.15;;;7.82;;
43933;SDS011;59081;42.706;23.306;2022-07-25T04:44:14;14.40;;;8.93;;
43933;SDS011;59081;42.706;23.306;2022-07-25T04:46:39;11.57;;;8.20;;
43933;SDS011;59081;42.706;23.306;2022-07-25T04:49:05;10.95;;;7.93;;
43933;SDS011;59081;42.706;23.306;2022-07-25T04:51:30;10.52;;;8.13;;
43933;SDS011;59081;42.706;23.306;2022-07-25T04:53:56;8.93;;;7.57;;
43933;SDS011;59081;42.706;23.306;2022-07-25T04:56:22;10.38;;;8.95;;
43933;SDS011;59081;42.706;23.306;2022-07-25T04:58:47;10.88;;;8.13;;
43933;SDS011;59081;42.706;23.306;2022-07-25T05:01:13;15.70;;;7.55;;
43933;SDS011;59081;42.706;23.306;2022-07-25T05:03:39;11.63;;;7.68;;
43933;SDS011;59081;42.706;23.306;2022-07-25T05:06:04;10.75;;;9.18;;
43933;SDS011;59081;42.706;23.306;2022-07-25T05:08:30;9.57;;;8.38;;
43933;SDS011;59081;42.706;23.306;2022-07-25T05:10:56;10.57;;;7.97;;
43933;SDS011;59081;42.706;23.306;2022-07-25T05:13:22;11.90;;;7.85;;
43933;SDS011;59081;42.706;23.306;2022-07-25T05:15:47;10.75;;;7.78;;
43933;SDS011;59081;42.706;23.306;2022-07-25T05:18:13;10.18;;;7.10;;
43933;SDS011;59081;42.706;23.306;2022-07-25T05:20:38;8.45;;;7.35;;
43933;SDS011;59081;42.706;23.306;2022-07-25T05:23:04;9.75;;;7.68;;
43933;SDS011;59081;42.706;23.306;2022-07-25T05:25:30;11.80;;;7.68;;
43933;SDS011;59081;42.706;23.306;2022-07-25T05:27:58;12.68;;;7.90;;
43933;SDS011;59081;42.706;23.306;2022-07-25T05:30:24;8.43;;;6.97;;
43933;SDS011;59081;42.706;23.306;2022-07-25T05:32:49;11.00;;;7.70;;
43933;SDS011;59081;42.706;23.306;2022-07-25T05:35:15;10.45;;;7.25;;
43933;SDS011;59081;42.706;23.306;2022-07-25T05:37:40;16.63;;;7.90;;
43933;SDS011;59081;42.706;23.306;2022-07-25T05:40:06;11.05;;;8.07;;
43933;SDS011;59081;42.706;23.306;2022-07-25T05:42:32;10.73;;;7.32;;
43933;SDS011;59081;42.706;23.306;2022-07-25T05:44:58;10.57;;;7.10;;
43933;SDS011;59081;42.706;23.306;2022-07-25T05:47:26;12.02;;;7.20;;
43933;SDS011;59081;42.706;23.306;2022-07-25T05:49:52;10.52;;;6.53;;
43933;SDS011;59081;42.706;23.306;2022-07-25T05:52:18;8.07;;;6.68;;
43933;SDS011;59081;42.706;23.306;2022-07-25T05:54:43;11.43;;;7.05;;
43933;SDS011;59081;42.706;23.306;2022-07-25T05:57:09;10.27;;;7.45;;
43933;SDS011;59081;42.706;23.306;2022-07-25T05:59:34;8.98;;;6.55;;
43933;SDS011;59081;42.706;23.306;2022-07-25T06:02:00;7.97;;;6.80;;
43933;SDS011;59081;42.706;23.306;2022-07-25T06:04:26;9.40;;;6.35;;
43933;SDS011;59081;42.706;23.306;2022-07-25T06:06:51;8.63;;;6.75;;
43933;SDS011;59081;42.706;23.306;2022-07-25T06:09:18;9.02;;;6.38;;
43933;SDS011;59081;42.706;23.306;2022-07-25T06:11:45;7.50;;;6.68;;
43933;SDS011;59081;42.706;23.306;2022-07-25T06:14:14;8.02;;;6.78;;
43933;SDS011;59081;42.706;23.306;2022-07-25T06:16:40;9.00;;;6.90;;
43933;SDS011;59081;42.706;23.306;2022-07-25T06:19:06;10.77;;;7.28;;
43933;SDS011;59081;42.706;23.306;2022-07-25T06:21:32;8.98;;;7.50;;
43933;SDS011;59081;42.706;23.306;2022-07-25T06:24:00;8.48;;;6.97;;
43933;SDS011;59081;42.706;23.306;2022-07-25T06:26:26;9.55;;;7.35;;
43933;SDS011;59081;42.706;23.306;2022-07-25T06:28:55;10.68;;;7.53;;
43933;SDS011;59081;42.706;23.306;2022-07-25T06:31:20;10.82;;;7.10;;
43933;SDS011;59081;42.706;23.306;2022-07-25T06:33:46;11.18;;;7.13;;
43933;SDS011;59081;42.706;23.306;2022-07-25T06:36:12;8.85;;;7.25;;
43933;SDS011;59081;42.706;23.306;2022-07-25T06:38:37;8.73;;;6.82;;
43933;SDS011;59081;42.706;23.306;2022-07-25T06:41:03;9.18;;;7.07;;
43933;SDS011;59081;42.706;23.306;2022-07-25T06:43:28;10.88;;;6.63;;
43933;SDS011;59081;42.706;23.306;2022-07-25T06:45:54;9.82;;;7.43;;
43933;SDS011;59081;42.706;23.306;2022-07-25T06:48:20;9.07;;;6.95;;
43933;SDS011;59081;42.706;23.306;2022-07-25T06:50:45;10.20;;;6.63;;
43933;SDS011;59081;42.706;23.306;2022-07-25T06:53:11;8.32;;;6.57;;
43933;SDS011;59081;42.706;23.306;2022-07-25T06:55:36;9.93;;;7.18;;
43933;SDS011;59081;42.706;23.306;2022-07-25T06:58:02;9.88;;;7.18;;
43933;SDS011;59081;42.706;23.306;2022-07-25T07:00:28;14.65;;;7.03;;
43933;SDS011;59081;42.706;23.306;2022-07-25T07:02:54;7.45;;;6.63;;
43933;SDS011;59081;42.706;23.306;2022-07-25T07:05:27;11.52;;;7.43;;
43933;SDS011;59081;42.706;23.306;2022-07-25T07:07:55;8.98;;;7.00;;
43933;SDS011;59081;42.706;23.306;2022-07-25T07:10:21;7.57;;;6.78;;
43933;SDS011;59081;42.706;23.306;2022-07-25T07:12:47;10.63;;;7.20;;
43933;SDS011;59081;42.706;23.306;2022-07-25T07:15:13;9.52;;;7.00;;
43933;SDS011;59081;42.706;23.306;2022-07-25T07:17:39;9.57;;;7.57;;
43933;SDS011;59081;42.706;23.306;2022-07-25T07:20:06;10.75;;;7.47;;
43933;SDS011;59081;42.706;23.306;2022-07-25T07:22:41;11.05;;;7.20;;
43933;SDS011;59081;42.706;23.306;2022-07-25T07:25:08;11.38;;;7.35;;
43933;SDS011;59081;42.706;23.306;2022-07-25T07:27:34;7.07;;;6.38;;
43933;SDS011;59081;42.706;23.306;2022-07-25T07:29:59;11.77;;;6.43;;
43933;SDS011;59081;42.706;23.306;2022-07-25T07:32:25;11.48;;;7.43;;
43933;SDS011;59081;42.706;23.306;2022-07-25T07:34:50;9.45;;;6.63;;
43933;SDS011;59081;42.706;23.306;2022-07-25T07:37:16;8.98;;;7.28;;
43933;SDS011;59081;42.706;23.306;2022-07-25T07:39:41;8.77;;;6.80;;
43933;SDS011;59081;42.706;23.306;2022-07-25T07:42:07;10.98;;;6.40;;
43933;SDS011;59081;42.706;23.306;2022-07-25T07:44:32;9.05;;;7.53;;
43933;SDS011;59081;42.706;23.306;2022-07-25T07:46:57;12.00;;;7.32;;
43933;SDS011;59081;42.706;23.306;2022-07-25T07:49:26;15.88;;;6.88;;
43933;SDS011;59081;42.706;23.306;2022-07-25T07:51:52;8.75;;;7.40;;
43933;SDS011;59081;42.706;23.306;2022-07-25T07:54:17;10.07;;;7.30;;
43933;SDS011;59081;42.706;23.306;2022-07-25T07:57:02;7.70;;;6.80;;
43933;SDS011;59081;42.706;23.306;2022-07-25T07:59:27;7.95;;;6.85;;
43933;SDS011;59081;42.706;23.306;2022-07-25T08:01:53;8.75;;;6.78;;
43933;SDS011;59081;42.706;23.306;2022-07-25T08:04:18;13.05;;;6.93;;
43933;SDS011;59081;42.706;23.306;2022-07-25T08:06:43;8.02;;;7.03;;
43933;SDS011;59081;42.706;23.306;2022-07-25T08:09:09;16.90;;;6.85;;
43933;SDS011;59081;42.706;23.306;2022-07-25T08:11:34;9.35;;;6.57;;
43933;SDS011;59081;42.706;23.306;2022-07-25T08:14:00;8.20;;;7.30;;
43933;SDS011;59081;42.706;23.306;2022-07-25T08:16:26;13.88;;;7.63;;
43933;SDS011;59081;42.706;23.306;2022-07-25T08:18:51;17.33;;;7.38;;
43933;SDS011;59081;42.706;23.306;2022-07-25T08:21:17;10.48;;;7.30;;
43933;SDS011;59081;42.706;23.306;2022-07-25T08:23:42;20.50;;;8.05;;
43933;SDS011;59081;42.706;23.306;2022-07-25T08:26:11;14.25;;;7.45;;
43933;SDS011;59081;42.706;23.306;2022-07-25T08:28:38;17.13;;;7.88;;
43933;SDS011;59081;42.706;23.306;2022-07-25T08:31:04;14.70;;;6.90;;
43933;SDS011;59081;42.706;23.306;2022-07-25T08:33:30;5.72;;;4.53;;
43933;SDS011;59081;42.706;23.306;2022-07-25T08:36:08;8.25;;;7.40;;
43933;SDS011;59081;42.706;23.306;2022-07-25T08:38:35;10.07;;;7.10;;
43933;SDS011;59081;42.706;23.306;2022-07-25T08:41:01;13.40;;;7.00;;
43933;SDS011;59081;42.706;23.306;2022-07-25T08:43:27;11.18;;;6.90;;
43933;SDS011;59081;42.706;23.306;2022-07-25T08:45:57;16.98;;;7.93;;
43933;SDS011;59081;42.706;23.306;2022-07-25T08:48:25;8.70;;;6.70;;
43933;SDS011;59081;42.706;23.306;2022-07-25T08:50:51;11.27;;;7.68;;
43933;SDS011;59081;42.706;23.306;2022-07-25T08:53:18;9.50;;;5.78;;
43933;SDS011;59081;42.706;23.306;2022-07-25T08:55:44;11.63;;;6.75;;
43933;SDS011;59081;42.706;23.306;2022-07-25T08:58:11;9.18;;;6.45;;
43933;SDS011;59081;42.706;23.306;2022-07-25T09:00:38;7.88;;;6.00;;
43933;SDS011;59081;42.706;23.306;2022-07-25T09:03:04;8.02;;;6.32;;
43933;SDS011;59081;42.706;23.306;2022-07-25T09:05:33;10.38;;;6.03;;
43933;SDS011;59081;42.706;23.306;2022-07-25T09:08:09;4.40;;;2.85;;
43933;SDS011;59081;42.706;23.306;2022-07-25T09:10:44;10.02;;;6.93;;
43933;SDS011;59081;42.706;23.306;2022-07-25T09:13:11;9.27;;;7.00;;
43933;SDS011;59081;42.706;23.306;2022-07-25T09:15:39;10.50;;;6.95;;
43933;SDS011;59081;42.706;23.306;2022-07-25T09:18:09;8.20;;;6.75;;
43933;SDS011;59081;42.706;23.306;2022-07-25T09:23:33;7.38;;;6.38;;
43933;SDS011;59081;42.706;23.306;2022-07-25T09:26:12;10.10;;;6.60;;
43933;SDS011;59081;42.706;23.306;2022-07-25T09:28:42;10.27;;;6.20;;
43933;SDS011;59081;42.706;23.306;2022-07-25T09:31:10;7.45;;;6.45;;
43933;SDS011;59081;42.706;23.306;2022-07-25T09:33:44;6.65;;;5.93;;
43933;SDS011;59081;42.706;23.306;2022-07-25T09:36:12;8.13;;;6.28;;
43933;SDS011;59081;42.706;23.306;2022-07-25T09:38:37;10.15;;;6.32;;
43933;SDS011;59081;42.706;23.306;2022-07-25T09:41:03;6.97;;;6.25;;
43933;SDS011;59081;42.706;23.306;2022-07-25T09:43:38;6.32;;;5.72;;
43933;SDS011;59081;42.706;23.306;2022-07-25T09:46:08;8.82;;;6.30;;
43933;SDS011;59081;42.706;23.306;2022-07-25T09:48:36;9.38;;;6.57;;
43933;SDS011;59081;42.706;23.306;2022-07-25T09:51:04;8.40;;;6.68;;
43933;SDS011;59081;42.706;23.306;2022-07-25T09:53:30;7.60;;;6.22;;
43933;SDS011;59081;42.706;23.306;2022-07-25T09:55:57;6.80;;;6.07;;
43933;SDS011;59081;42.706;23.306;2022-07-25T09:58:23;7.70;;;5.90;;
43933;SDS011;59081;42.706;23.306;2022-07-25T10:00:50;14.45;;;5.55;;
43933;SDS011;59081;42.706;23.306;2022-07-25T10:08:34;6.43;;;5.72;;
43933;SDS011;59081;42.706;23.306;2022-07-25T10:11:01;11.10;;;6.35;;
43933;SDS011;59081;42.706;23.306;2022-07-25T10:13:29;11.43;;;6.50;;
43933;SDS011;59081;42.706;23.306;2022-07-25T10:15:58;6.50;;;5.75;;
43933;SDS011;59081;42.706;23.306;2022-07-25T10:18:24;6.75;;;5.82;;
43933;SDS011;59081;42.706;23.306;2022-07-25T10:21:06;9.45;;;6.03;;
43933;SDS011;59081;42.706;23.306;2022-07-25T10:23:36;7.95;;;5.47;;
43933;SDS011;59081;42.706;23.306;2022-07-25T10:26:11;12.18;;;6.10;;
43933;SDS011;59081;42.706;23.306;2022-07-25T10:31:15;5.78;;;5.18;;
43933;SDS011;59081;42.706;23.306;2022-07-25T10:34:07;7.30;;;5.70;;
43933;SDS011;59081;42.706;23.306;2022-07-25T10:39:11;6.38;;;5.78;;
43933;SDS011;59081;42.706;23.306;2022-07-25T10:41:39;7.68;;;5.53;;
43933;SDS011;59081;42.706;23.306;2022-07-25T10:44:13;11.20;;;5.63;;
43933;SDS011;59081;42.706;23.306;2022-07-25T10:46:39;7.28;;;5.53;;
43933;SDS011;59081;42.706;23.306;2022-07-25T10:49:08;7.03;;;5.65;;
43933;SDS011;59081;42.706;23.306;2022-07-25T10:51:58;7.40;;;5.80;;
43933;SDS011;59081;42.706;23.306;2022-07-25T10:54:25;5.57;;;4.88;;
43933;SDS011;59081;42.706;23.306;2022-07-25T10:56:56;5.80;;;5.20;;
43933;SDS011;59081;42.706;23.306;2022-07-25T10:59:33;5.93;;;5.10;;
43933;SDS011;59081;42.706;23.306;2022-07-25T11:02:01;6.20;;;4.75;;
43933;SDS011;59081;42.706;23.306;2022-07-25T11:04:28;5.97;;;5.18;;
43933;SDS011;59081;42.706;23.306;2022-07-25T11:06:54;7.55;;;5.18;;
43933;SDS011;59081;42.706;23.306;2022-07-25T11:09:23;6.20;;;4.82;;
43933;SDS011;59081;42.706;23.306;2022-07-25T11:11:56;12.88;;;5.03;;
43933;SDS011;59081;42.706;23.306;2022-07-25T11:14:24;12.02;;;5.35;;
43933;SDS011;59081;42.706;23.306;2022-07-25T11:16:55;11.80;;;6.03;;
43933;SDS011;59081;42.706;23.306;2022-07-25T11:19:25;5.93;;;4.93;;
43933;SDS011;59081;42.706;23.306;2022-07-25T11:21:55;6.15;;;5.40;;
43933;SDS011;59081;42.706;23.306;2022-07-25T11:24:35;12.02;;;6.15;;
43933;SDS011;59081;42.706;23.306;2022-07-25T11:27:02;6.55;;;4.90;;
43933;SDS011;59081;42.706;23.306;2022-07-25T11:29:28;8.07;;;5.30;;
43933;SDS011;59081;42.706;23.306;2022-07-25T11:31:59;7.13;;;5.10;;
43933;SDS011;59081;42.706;23.306;2022-07-25T11:34:27;7.25;;;5.40;;
43933;SDS011;59081;42.706;23.306;2022-07-25T11:36:54;8.30;;;5.00;;
43933;SDS011;59081;42.706;23.306;2022-07-25T11:39:28;7.03;;;4.63;;
43933;SDS011;59081;42.706;23.306;2022-07-25T11:42:09;9.18;;;5.38;;
43933;SDS011;59081;42.706;23.306;2022-07-25T11:44:40;7.35;;;5.10;;
43933;SDS011;59081;42.706;23.306;2022-07-25T11:47:08;6.97;;;4.80;;
43933;SDS011;59081;42.706;23.306;2022-07-25T11:49:48;8.25;;;5.40;;
43933;SDS011;59081;42.706;23.306;2022-07-25T11:55:26;17.88;;;5.22;;
43933;SDS011;59081;42.706;23.306;2022-07-25T11:57:44;6.65;;;5.50;;
43933;SDS011;59081;42.706;23.306;2022-07-25T12:00:19;5.22;;;4.55;;
43933;SDS011;59081;42.706;23.306;2022-07-25T12:02:46;5.63;;;5.00;;
43933;SDS011;59081;42.706;23.306;2022-07-25T12:05:14;7.85;;;4.75;;
43933;SDS011;59081;42.706;23.306;2022-07-25T12:10:11;7.20;;;4.88;;
43933;SDS011;59081;42.706;23.306;2022-07-25T12:15:12;5.25;;;4.75;;
43933;SDS011;59081;42.706;23.306;2022-07-25T12:17:39;9.95;;;5.75;;
43933;SDS011;59081;42.706;23.306;2022-07-25T12:20:11;8.77;;;5.43;;
43933;SDS011;59081;42.706;23.306;2022-07-25T12:22:38;9.43;;;5.32;;
43933;SDS011;59081;42.706;23.306;2022-07-25T12:25:04;5.75;;;4.95;;
43933;SDS011;59081;42.706;23.306;2022-07-25T12:27:30;4.93;;;4.43;;
43933;SDS011;59081;42.706;23.306;2022-07-25T12:29:55;6.45;;;4.60;;
43933;SDS011;59081;42.706;23.306;2022-07-25T12:32:22;6.75;;;4.75;;
43933;SDS011;59081;42.706;23.306;2022-07-25T12:34:47;5.63;;;4.60;;
43933;SDS011;59081;42.706;23.306;2022-07-25T12:37:13;5.22;;;4.70;;
43933;SDS011;59081;42.706;23.306;2022-07-25T12:39:38;6.50;;;4.70;;
43933;SDS011;59081;42.706;23.306;2022-07-25T12:42:04;6.50;;;4.82;;
43933;SDS011;59081;42.706;23.306;2022-07-25T12:44:29;10.50;;;4.75;;
43933;SDS011;59081;42.706;23.306;2022-07-25T12:46:55;8.38;;;4.47;;
43933;SDS011;59081;42.706;23.306;2022-07-25T12:49:20;10.95;;;5.22;;
43933;SDS011;59081;42.706;23.306;2022-07-25T12:51:46;10.52;;;5.15;;
43933;SDS011;59081;42.706;23.306;2022-07-25T12:54:11;5.88;;;5.22;;
43933;SDS011;59081;42.706;23.306;2022-07-25T12:56:37;7.47;;;4.97;;
43933;SDS011;59081;42.706;23.306;2022-07-25T12:59:02;8.30;;;4.63;;
43933;SDS011;59081;42.706;23.306;2022-07-25T13:01:28;6.57;;;4.78;;
43933;SDS011;59081;42.706;23.306;2022-07-25T13:03:53;11.00;;;5.22;;
43933;SDS011;59081;42.706;23.306;2022-07-25T13:06:19;8.43;;;5.70;;
43933;SDS011;59081;42.706;23.306;2022-07-25T13:08:45;5.45;;;4.35;;
43933;SDS011;59081;42.706;23.306;2022-07-25T13:11:11;8.48;;;4.97;;
43933;SDS011;59081;42.706;23.306;2022-07-25T13:13:36;7.82;;;5.20;;
43933;SDS011;59081;42.706;23.306;2022-07-25T13:16:03;7.07;;;4.63;;
43933;SDS011;59081;42.706;23.306;2022-07-25T13:18:30;6.53;;;5.00;;
43933;SDS011;59081;42.706;23.306;2022-07-25T13:20:55;6.13;;;5.50;;
43933;SDS011;59081;42.706;23.306;2022-07-25T13:23:21;5.03;;;4.43;;
43933;SDS011;59081;42.706;23.306;2022-07-25T13:25:47;7.00;;;4.93;;
43933;SDS011;59081;42.706;23.306;2022-07-25T13:28:13;8.55;;;4.90;;
43933;SDS011;59081;42.706;23.306;2022-07-25T13:30:38;10.25;;;4.97;;
43933;SDS011;59081;42.706;23.306;2022-07-25T13:33:04;7.20;;;4.85;;
43933;SDS011;59081;42.706;23.306;2022-07-25T13:35:30;6.80;;;4.65;;
43933;SDS011;59081;42.706;23.306;2022-07-25T13:37:56;9.43;;;4.47;;
43933;SDS011;59081;42.706;23.306;2022-07-25T13:40:22;8.50;;;4.75;;
43933;SDS011;59081;42.706;23.306;2022-07-25T13:42:47;7.57;;;5.47;;
43933;SDS011;59081;42.706;23.306;2022-07-25T13:45:12;5.25;;;4.63;;
43933;SDS011;59081;42.706;23.306;2022-07-25T13:47:38;5.82;;;4.30;;
43933;SDS011;59081;42.706;23.306;2022-07-25T13:50:04;6.00;;;4.35;;
43933;SDS011;59081;42.706;23.306;2022-07-25T13:52:30;6.03;;;4.80;;
43933;SDS011;59081;42.706;23.306;2022-07-25T13:54:55;8.95;;;4.68;;
43933;SDS011;59081;42.706;23.306;2022-07-25T13:57:21;4.65;;;4.15;;
43933;SDS011;59081;42.706;23.306;2022-07-25T13:59:46;6.20;;;4.85;;
43933;SDS011;59081;42.706;23.306;2022-07-25T14:02:11;6.05;;;4.63;;
43933;SDS011;59081;42.706;23.306;2022-07-25T14:04:37;5.00;;;4.47;;
43933;SDS011;59081;42.706;23.306;2022-07-25T14:07:03;4.80;;;4.30;;
43933;SDS011;59081;42.706;23.306;2022-07-25T14:09:29;5.45;;;4.78;;
43933;SDS011;59081;42.706;23.306;2022-07-25T14:11:55;5.72;;;4.60;;
43933;SDS011;59081;42.706;23.306;2022-07-25T14:14:20;4.80;;;4.22;;
43933;SDS011;59081;42.706;23.306;2022-07-25T14:16:46;6.20;;;4.85;;
43933;SDS011;59081;42.706;23.306;2022-07-25T14:19:12;18.88;;;6.45;;
43933;SDS011;59081;42.706;23.306;2022-07-25T14:21:39;9.48;;;4.38;;
43933;SDS011;59081;42.706;23.306;2022-07-25T14:24:05;7.43;;;4.68;;
43933;SDS011;59081;42.706;23.306;2022-07-25T14:26:32;7.95;;;4.90;;
43933;SDS011;59081;42.706;23.306;2022-07-25T14:28:58;7.63;;;4.88;;
43933;SDS011;59081;42.706;23.306;2022-07-25T14:31:23;5.80;;;4.82;;
43933;SDS011;59081;42.706;23.306;2022-07-25T14:33:49;5.28;;;4.70;;
43933;SDS011;59081;42.706;23.306;2022-07-25T14:36:14;11.05;;;4.75;;
43933;SDS011;59081;42.706;23.306;2022-07-25T14:38:40;8.65;;;4.55;;
43933;SDS011;59081;42.706;23.306;2022-07-25T14:41:05;8.80;;;4.20;;
43933;SDS011;59081;42.706;23.306;2022-07-25T14:43:31;5.18;;;4.13;;
43933;SDS011;59081;42.706;23.306;2022-07-25T14:45:57;10.65;;;4.63;;